createdAt,value
2017-11-06T00:08:02.857Z,10.810137999999998
2017-11-06T00:28:07.922Z,10.810137999999998
2017-11-06T00:48:12.957Z,10.810137999999998
2017-11-06T01:08:18.077Z,10.810137999999998
2017-11-06T01:28:23.091Z,10.74766
2017-11-06T01:48:28.193Z,10.74766
2017-11-06T02:08:33.187Z,10.74766
2017-11-06T02:28:38.285Z,10.74766
2017-11-06T02:48:43.305Z,10.74766
2017-11-06T03:08:48.364Z,10.74766
2017-11-06T03:28:53.407Z,10.685182
2017-11-06T03:48:58.467Z,10.685182
2017-11-06T04:09:03.541Z,10.685182
2017-11-06T04:29:07.574Z,10.685182
2017-11-06T04:49:12.637Z,10.622703999999999
2017-11-06T05:09:17.680Z,10.622703999999999
2017-11-06T05:29:22.723Z,10.622703999999999
2017-11-06T05:49:27.804Z,10.560225999999998
2017-11-06T06:09:32.852Z,10.560225999999998
2017-11-06T06:29:37.900Z,10.560225999999998
2017-11-06T06:49:42.977Z,10.560225999999998
2017-11-06T07:09:48.030Z,10.497748
2017-11-06T07:29:53.066Z,10.560225999999998
2017-11-06T07:49:58.127Z,10.497748
2017-11-06T08:10:03.153Z,10.497748
2017-11-06T08:30:08.226Z,10.497748
2017-11-06T08:50:13.263Z,10.497748
2017-11-06T09:10:18.320Z,10.497748
2017-11-06T09:30:23.383Z,10.497748
2017-11-06T09:50:28.518Z,10.497748
2017-11-06T10:10:33.521Z,10.497748
2017-11-06T10:30:38.499Z,10.560225999999998
2017-11-06T10:50:43.552Z,10.560225999999998
2017-11-06T11:10:48.625Z,10.560225999999998
2017-11-06T11:30:53.617Z,10.560225999999998
2017-11-06T11:50:58.701Z,10.560225999999998
2017-11-06T12:11:03.681Z,10.560225999999998
2017-11-06T12:51:13.803Z,10.622703999999999
2017-11-06T13:11:18.824Z,10.622703999999999
2017-11-06T13:31:23.866Z,10.622703999999999
2017-11-06T13:51:28.903Z,10.622703999999999
2017-11-06T14:11:33.949Z,10.622703999999999
2017-11-06T14:31:39.028Z,10.622703999999999
2017-11-06T14:51:44.029Z,10.622703999999999
2017-11-06T15:11:49.103Z,10.622703999999999
2017-11-06T15:51:59.176Z,10.622703999999999
2017-11-06T16:12:04.214Z,10.622703999999999
2017-11-06T16:32:09.257Z,10.622703999999999
2017-11-06T16:52:14.361Z,10.622703999999999
2017-11-06T17:32:24.399Z,10.560225999999998
2017-11-06T18:12:34.516Z,10.560225999999998
2017-11-06T18:32:39.578Z,10.497748
2017-11-06T18:52:44.619Z,10.560225999999998
2017-11-06T19:12:49.678Z,10.497748
2017-11-06T19:52:59.782Z,10.497748
2017-11-06T20:13:04.835Z,10.497748
2017-11-06T20:33:09.901Z,10.497748
2017-11-06T20:53:14.958Z,10.43527
2017-11-06T21:13:19.998Z,10.43527
2017-11-06T21:33:25.056Z,10.43527
2017-11-06T21:53:30.121Z,10.43527
2017-11-06T22:13:35.166Z,10.43527
2017-11-06T22:33:40.240Z,10.43527
2017-11-06T22:53:45.288Z,10.43527
2017-11-06T23:13:50.341Z,10.372791999999999
2017-11-06T23:33:55.394Z,10.43527
2017-11-06T23:54:00.453Z,10.372791999999999
